Time,TemperatureF,DewpointF,PressureIn,WindDirection,WindDirectionDegrees,WindSpeedMPH,WindSpeedGustMPH,Humidity,HourlyPrecipIn,Conditions,Clouds,dailyrainin,SoftwareType,DateUTC
2013-03-06 00:01:00,42.0,40.0,26.26,WSW,251,14.0,21.0,93,-99.99,,,-99.99,,2013-03-06 08:01:00,
2013-03-06 00:11:00,42.0,40.0,26.26,WSW,253,14.0,24.0,93,-99.99,,,-99.99,,2013-03-06 08:11:00,
2013-03-06 00:21:00,42.0,40.0,26.26,WSW,256,16.0,23.0,94,-99.99,,,-99.99,,2013-03-06 08:21:00,
2013-03-06 00:31:00,42.0,40.0,26.23,WSW,258,17.0,26.0,93,-99.99,,,-99.99,,2013-03-06 08:31:00,
2013-03-06 00:42:00,42.0,40.0,26.23,WSW,254,17.0,28.0,92,-99.99,,,-99.99,,2013-03-06 08:42:00,
2013-03-06 00:52:00,42.0,40.0,26.23,WSW,253,17.0,27.0,92,-99.99,,,-99.99,,2013-03-06 08:52:00,
2013-03-06 01:01:00,42.0,40.0,26.23,WSW,253,17.0,27.0,92,-99.99,,,-99.99,,2013-03-06 09:01:00,
2013-03-06 01:12:00,42.0,40.0,26.23,WSW,252,18.0,26.0,92,-99.99,,,-99.99,,2013-03-06 09:12:00,
2013-03-06 01:21:00,42.0,40.0,26.23,WSW,254,18.0,29.0,92,-99.99,,,-99.99,,2013-03-06 09:21:00,
2013-03-06 01:31:00,42.0,40.0,26.23,WSW,252,19.0,27.0,92,-99.99,,,-99.99,,2013-03-06 09:31:00,
2013-03-06 01:41:00,41.0,39.0,26.23,WSW,254,20.0,31.0,93,-99.99,,,-99.99,,2013-03-06 09:41:00,
2013-03-06 01:51:00,41.0,39.0,26.23,WSW,257,20.0,28.0,91,-99.99,,,-99.99,,2013-03-06 09:51:00,
2013-03-06 02:01:00,41.0,39.0,26.23,WSW,253,19.0,31.0,91,-99.99,,,-99.99,,2013-03-06 10:01:00,
2013-03-06 02:11:00,41.0,39.0,26.23,WSW,253,20.0,32.0,92,-99.99,,,-99.99,,2013-03-06 10:11:00,
2013-03-06 02:21:00,41.0,39.0,26.23,WSW,250,22.0,32.0,91,-99.99,,,-99.99,,2013-03-06 10:21:00,
2013-03-06 02:31:00,41.0,39.0,26.23,WSW,250,19.0,27.0,91,-99.99,,,-99.99,,2013-03-06 10:31:00,
2013-03-06 02:41:00,41.0,39.0,26.20,WSW,250,18.0,30.0,91,-99.99,,,-99.99,,2013-03-06 10:41:00,
2013-03-06 02:51:00,41.0,38.0,26.20,WSW,251,19.0,30.0,90,-99.99,,,-99.99,,2013-03-06 10:51:00,
2013-03-06 03:01:00,41.0,38.0,26.20,WSW,251,19.0,30.0,90,-99.99,,,-99.99,,2013-03-06 11:01:00,
2013-03-06 03:11:00,40.0,38.0,26.23,WSW,252,20.0,33.0,92,-99.99,,,-99.99,,2013-03-06 11:11:00,
2013-03-06 03:22:00,40.0,38.0,26.23,WSW,253,20.0,31.0,93,-99.99,,,-99.99,,2013-03-06 11:22:00,
2013-03-06 03:31:00,40.0,38.0,26.23,WSW,249,20.0,29.0,93,-99.99,,,-99.99,,2013-03-06 11:31:00,
2013-03-06 03:42:00,40.0,38.0,26.23,WSW,246,18.0,26.0,93,-99.99,,,-99.99,,2013-03-06 11:42:00,
2013-03-06 03:52:00,40.0,38.0,26.23,WSW,243,16.0,23.0,93,-99.99,,,-99.99,,2013-03-06 11:52:00,
2013-03-06 04:01:00,40.0,38.0,26.23,WSW,240,16.0,23.0,92,-99.99,,,-99.99,,2013-03-06 12:01:00,
2013-03-06 04:11:00,40.0,37.0,26.17,WSW,243,16.0,26.0,89,-99.99,,,-99.99,,2013-03-06 12:11:00,
2013-03-06 04:21:00,39.0,35.0,26.17,WSW,249,15.0,22.0,87,-99.99,,,-99.99,,2013-03-06 12:21:00,
2013-03-06 04:32:00,39.0,35.0,26.14,WSW,251,17.0,23.0,87,-99.99,,,-99.99,,2013-03-06 12:32:00,
2013-03-06 04:42:00,39.0,35.0,26.14,WSW,250,17.0,26.0,86,-99.99,,,-99.99,,2013-03-06 12:42:00,
2013-03-06 04:52:00,39.0,35.0,26.14,WSW,251,16.0,23.0,87,-99.99,,,-99.99,,2013-03-06 12:52:00,
2013-03-06 05:01:00,39.0,36.0,26.17,WSW,248,16.0,25.0,89,-99.99,,,-99.99,,2013-03-06 13:01:00,
2013-03-06 05:11:00,39.0,37.0,26.20,WSW,247,17.0,24.0,92,-99.99,,,-99.99,,2013-03-06 13:11:00,
2013-03-06 05:21:00,39.0,37.0,26.20,WSW,245,17.0,25.0,92,-99.99,,,-99.99,,2013-03-06 13:21:00,
2013-03-06 05:31:00,39.0,37.0,26.20,WSW,249,15.0,24.0,91,-99.99,,,-99.99,,2013-03-06 13:31:00,
2013-03-06 05:42:00,39.0,37.0,26.20,WSW,243,14.0,19.0,91,-99.99,,,-99.99,,2013-03-06 13:42:00,
2013-03-06 05:51:00,39.0,37.0,26.20,WSW,241,11.0,20.0,91,-99.99,,,-99.99,,2013-03-06 13:51:00,
2013-03-06 06:01:00,39.0,36.0,26.20,WSW,241,14.0,23.0,90,-99.99,,,-99.99,,2013-03-06 14:01:00,
2013-03-06 06:11:00,39.0,36.0,26.20,WSW,239,12.0,19.0,90,-99.99,,,-99.99,,2013-03-06 14:11:00,
2013-03-06 06:21:00,39.0,37.0,26.20,WSW,245,9.0,14.0,91,-99.99,,,-99.99,,2013-03-06 14:21:00,
2013-03-06 06:32:00,39.0,37.0,26.20,WSW,245,11.0,18.0,92,-99.99,,,-99.99,,2013-03-06 14:32:00,
2013-03-06 06:41:00,39.0,37.0,26.23,WSW,252,11.0,19.0,92,-99.99,,,-99.99,,2013-03-06 14:41:00,
2013-03-06 06:52:00,39.0,37.0,26.23,WSW,258,13.0,26.0,92,-99.99,,,-99.99,,2013-03-06 14:52:00,
2013-03-06 07:01:00,39.0,36.0,26.17,West,264,14.0,24.0,90,-99.99,,,-99.99,,2013-03-06 15:01:00,
2013-03-06 07:11:00,39.0,36.0,26.17,West,265,16.0,30.0,89,-99.99,,,-99.99,,2013-03-06 15:11:00,
2013-03-06 07:21:00,39.0,36.0,26.17,West,270,21.0,30.0,89,-99.99,,,-99.99,,2013-03-06 15:21:00,
2013-03-06 07:32:00,39.0,35.0,26.14,West,272,24.0,38.0,87,-99.99,,,-99.99,,2013-03-06 15:32:00,
2013-03-06 07:41:00,39.0,35.0,26.11,West,272,26.0,35.0,85,-99.99,,,-99.99,,2013-03-06 15:41:00,
2013-03-06 07:52:00,39.0,35.0,26.11,West,272,26.0,35.0,85,-99.99,,,-99.99,,2013-03-06 15:52:00,
2013-03-06 08:01:00,40.0,35.0,26.11,West,269,21.0,30.0,83,-99.99,,,-99.99,,2013-03-06 16:01:00,
2013-03-06 08:11:00,40.0,35.0,26.11,West,267,16.0,27.0,83,-99.99,,,-99.99,,2013-03-06 16:11:00,
2013-03-06 08:21:00,41.0,36.0,26.11,West,262,13.0,21.0,82,-99.99,,,-99.99,,2013-03-06 16:21:00,
2013-03-06 08:32:00,41.0,36.0,26.08,WSW,249,13.0,22.0,81,-99.99,,,-99.99,,2013-03-06 16:32:00,
2013-03-06 08:41:00,42.0,36.0,26.08,WSW,239,8.0,17.0,79,-99.99,,,-99.99,,2013-03-06 16:41:00,
2013-03-06 08:51:00,42.0,36.0,26.05,SW,224,7.0,17.0,78,-99.99,,,-99.99,,2013-03-06 16:51:00,
2013-03-06 09:01:00,43.0,36.0,26.05,SW,229,10.0,16.0,76,-99.99,,,-99.99,,2013-03-06 17:01:00,
2013-03-06 09:11:00,43.0,36.0,26.05,SW,233,12.0,18.0,76,-99.99,,,-99.99,,2013-03-06 17:11:00,
2013-03-06 09:21:00,44.0,36.0,26.02,SW,232,12.0,21.0,74,-99.99,,,-99.99,,2013-03-06 17:21:00,
2013-03-06 09:31:00,44.0,36.0,26.02,WSW,244,15.0,21.0,73,-99.99,,,-99.99,,2013-03-06 17:31:00,
2013-03-06 09:41:00,45.0,37.0,25.99,WSW,248,15.0,22.0,72,-99.99,,,-99.99,,2013-03-06 17:41:00,
2013-03-06 09:52:00,46.0,36.0,25.99,WSW,250,17.0,26.0,69,-99.99,,,-99.99,,2013-03-06 17:52:00,
2013-03-06 10:01:00,46.0,36.0,25.96,WSW,254,16.0,24.0,67,-99.99,,,-99.99,,2013-03-06 18:01:00,
2013-03-06 10:28:00,48.0,36.0,25.90,WSW,249,17.0,25.0,63,-99.99,,,-99.99,,2013-03-06 18:28:00,
2013-03-06 10:42:00,49.0,36.0,25.90,WSW,257,16.0,23.0,60,-99.99,,,-99.99,,2013-03-06 18:42:00,
2013-03-06 10:52:00,50.0,37.0,25.87,West,262,17.0,26.0,60,-99.99,,,-99.99,,2013-03-06 18:52:00,
2013-03-06 11:02:00,49.0,36.0,25.90,WSW,258,19.0,27.0,60,-99.99,,,-99.99,,2013-03-06 19:02:00,
2013-03-06 11:11:00,50.0,37.0,25.87,West,259,18.0,26.0,60,-99.99,,,-99.99,,2013-03-06 19:11:00,
2013-03-06 11:21:00,50.0,37.0,25.90,West,260,20.0,28.0,60,-99.99,,,-99.99,,2013-03-06 19:21:00,
2013-03-06 11:32:00,51.0,37.0,25.87,West,260,18.0,26.0,58,-99.99,,,-99.99,,2013-03-06 19:32:00,
2013-03-06 11:42:00,51.0,37.0,25.87,West,261,19.0,27.0,59,-99.99,,,-99.99,,2013-03-06 19:42:00,
2013-03-06 11:52:00,51.0,38.0,25.90,WSW,258,19.0,28.0,60,-99.99,,,-99.99,,2013-03-06 19:52:00,
2013-03-06 12:01:00,51.0,37.0,25.90,WSW,255,19.0,28.0,59,-99.99,,,-99.99,,2013-03-06 20:01:00,
2013-03-06 12:11:00,52.0,38.0,25.87,West,261,19.0,27.0,58,-99.99,,,-99.99,,2013-03-06 20:11:00,
2013-03-06 12:22:00,52.0,37.0,25.87,WSW,258,19.0,28.0,57,-99.99,,,-99.99,,2013-03-06 20:22:00,
2013-03-06 12:32:00,53.0,38.0,25.84,West,259,18.0,29.0,56,-99.99,,,-99.99,,2013-03-06 20:32:00,
2013-03-06 12:42:00,53.0,37.0,25.84,WSW,258,17.0,26.0,55,-99.99,,,-99.99,,2013-03-06 20:42:00,
2013-03-06 12:52:00,54.0,37.0,25.84,WSW,257,17.0,25.0,53,-99.99,,,-99.99,,2013-03-06 20:52:00,
2013-03-06 13:01:00,54.0,37.0,25.84,WSW,258,16.0,22.0,53,-99.99,,,-99.99,,2013-03-06 21:01:00,
2013-03-06 13:11:00,55.0,37.0,25.81,WSW,258,14.0,23.0,51,-99.99,,,-99.99,,2013-03-06 21:11:00,
2013-03-06 13:21:00,56.0,37.0,25.78,WSW,258,15.0,21.0,49,-99.99,,,-99.99,,2013-03-06 21:21:00,
2013-03-06 13:31:00,56.0,36.0,25.78,West,260,15.0,22.0,47,-99.99,,,-99.99,,2013-03-06 21:31:00,
2013-03-06 13:42:00,56.0,35.0,25.75,WSW,250,14.0,21.0,45,-99.99,,,-99.99,,2013-03-06 21:42:00,
2013-03-06 13:51:00,57.0,34.0,25.72,WSW,257,15.0,26.0,42,-99.99,,,-99.99,,2013-03-06 21:51:00,
2013-03-06 14:01:00,57.0,35.0,25.72,WSW,258,15.0,20.0,43,-99.99,,,-99.99,,2013-03-06 22:01:00,
2013-03-06 14:11:00,57.0,35.0,25.75,WSW,253,15.0,24.0,44,-99.99,,,-99.99,,2013-03-06 22:11:00,
2013-03-06 14:21:00,56.0,36.0,25.78,WSW,256,16.0,23.0,47,-99.99,,,-99.99,,2013-03-06 22:21:00,
2013-03-06 14:31:00,56.0,38.0,25.81,West,261,17.0,26.0,50,-99.99,,,-99.99,,2013-03-06 22:31:00,
2013-03-06 14:41:00,56.0,38.0,25.81,WSW,256,16.0,24.0,50,-99.99,,,-99.99,,2013-03-06 22:41:00,
2013-03-06 14:51:00,55.0,36.0,25.81,West,267,18.0,27.0,49,-99.99,,,-99.99,,2013-03-06 22:51:00,
2013-03-06 15:01:00,55.0,36.0,25.78,West,261,18.0,26.0,49,-99.99,,,-99.99,,2013-03-06 23:01:00,
2013-03-06 15:11:00,55.0,37.0,25.81,West,262,15.0,22.0,51,-99.99,,,-99.99,,2013-03-06 23:11:00,
2013-03-06 15:21:00,55.0,37.0,25.81,West,270,15.0,24.0,51,-99.99,,,-99.99,,2013-03-06 23:21:00,
2013-03-06 15:31:00,55.0,37.0,25.81,West,265,15.0,22.0,50,-99.99,,,-99.99,,2013-03-06 23:31:00,
2013-03-06 15:41:00,54.0,36.0,25.81,West,260,14.0,20.0,50,-99.99,,,-99.99,,2013-03-06 23:41:00,
2013-03-06 15:52:00,54.0,36.0,25.81,West,260,14.0,20.0,50,-99.99,,,-99.99,,2013-03-06 23:52:00,
2013-03-06 16:01:00,54.0,35.0,25.78,West,260,14.0,22.0,49,-99.99,,,-99.99,,2013-03-07 00:01:00,
2013-03-06 16:11:00,54.0,36.0,25.78,West,263,15.0,21.0,50,-99.99,,,-99.99,,2013-03-07 00:11:00,
2013-03-06 16:21:00,54.0,36.0,25.81,WSW,254,14.0,20.0,51,-99.99,,,-99.99,,2013-03-07 00:21:00,
2013-03-06 16:32:00,53.0,36.0,25.84,WSW,256,14.0,20.0,53,-99.99,,,-99.99,,2013-03-07 00:32:00,
2013-03-06 16:41:00,53.0,36.0,25.84,WSW,256,14.0,20.0,53,-99.99,,,-99.99,,2013-03-07 00:41:00,
2013-03-06 16:51:00,53.0,36.0,25.84,WSW,256,14.0,20.0,53,-99.99,,,-99.99,,2013-03-07 00:51:00,
2013-03-06 17:01:00,53.0,38.0,25.84,WSW,251,14.0,22.0,56,-99.99,,,-99.99,,2013-03-07 01:01:00,
2013-03-06 17:11:00,52.0,37.0,25.87,WSW,251,14.0,21.0,57,-99.99,,,-99.99,,2013-03-07 01:11:00,
2013-03-06 17:21:00,52.0,38.0,25.87,WSW,253,14.0,21.0,58,-99.99,,,-99.99,,2013-03-07 01:21:00,
2013-03-06 17:31:00,51.0,38.0,25.90,WSW,253,13.0,20.0,60,-99.99,,,-99.99,,2013-03-07 01:31:00,
2013-03-06 17:41:00,51.0,38.0,25.93,WSW,251,13.0,19.0,62,-99.99,,,-99.99,,2013-03-07 01:41:00,
2013-03-06 17:51:00,50.0,39.0,25.96,WSW,247,15.0,20.0,65,-99.99,,,-99.99,,2013-03-07 01:51:00,
2013-03-06 18:01:00,49.0,39.0,25.96,WSW,244,14.0,21.0,67,-99.99,,,-99.99,,2013-03-07 02:01:00,
2013-03-06 18:11:00,48.0,38.0,25.99,WSW,247,14.0,19.0,69,-99.99,,,-99.99,,2013-03-07 02:11:00,
2013-03-06 18:21:00,48.0,39.0,26.02,WSW,249,12.0,17.0,71,-99.99,,,-99.99,,2013-03-07 02:21:00,
2013-03-06 18:31:00,47.0,39.0,26.02,WSW,245,13.0,18.0,73,-99.99,,,-99.99,,2013-03-07 02:31:00,
2013-03-06 18:41:00,47.0,39.0,26.02,WSW,245,13.0,18.0,73,-99.99,,,-99.99,,2013-03-07 02:41:00,
2013-03-06 18:51:00,47.0,39.0,26.02,WSW,245,13.0,18.0,73,-99.99,,,-99.99,,2013-03-07 02:51:00,
2013-03-06 19:01:00,45.0,39.0,26.08,WSW,246,15.0,20.0,78,-99.99,,,-99.99,,2013-03-07 03:01:00,
2013-03-06 19:11:00,44.0,38.0,26.08,WSW,250,15.0,20.0,79,-99.99,,,-99.99,,2013-03-07 03:11:00,
2013-03-06 19:21:00,44.0,38.0,26.11,WSW,250,17.0,23.0,80,-99.99,,,-99.99,,2013-03-07 03:21:00,
2013-03-06 19:31:00,43.0,38.0,26.11,WSW,249,16.0,21.0,81,-99.99,,,-99.99,,2013-03-07 03:31:00,
2013-03-06 19:41:00,43.0,38.0,26.11,WSW,249,16.0,22.0,83,-99.99,,,-99.99,,2013-03-07 03:41:00,
2013-03-06 19:51:00,43.0,38.0,26.14,WSW,254,16.0,23.0,84,-99.99,,,-99.99,,2013-03-07 03:51:00,
2013-03-06 20:01:00,42.0,38.0,26.14,WSW,256,16.0,22.0,85,-99.99,,,-99.99,,2013-03-07 04:01:00,
2013-03-06 20:11:00,42.0,38.0,26.17,WSW,254,16.0,23.0,86,-99.99,,,-99.99,,2013-03-07 04:11:00,
2013-03-06 20:21:00,42.0,39.0,26.17,WSW,253,16.0,23.0,88,-99.99,,,-99.99,,2013-03-07 04:21:00,
2013-03-06 20:31:00,41.0,38.0,26.20,WSW,256,16.0,21.0,89,-99.99,,,-99.99,,2013-03-07 04:31:00,
2013-03-06 20:41:00,41.0,38.0,26.20,WSW,258,16.0,22.0,90,-99.99,,,-99.99,,2013-03-07 04:41:00,
2013-03-06 20:51:00,41.0,39.0,26.23,West,259,15.0,21.0,92,-99.99,,,-99.99,,2013-03-07 04:51:00,
2013-03-06 21:01:00,41.0,39.0,26.23,West,259,15.0,21.0,92,-99.99,,,-99.99,,2013-03-07 05:01:00,
2013-03-06 21:12:00,40.0,38.0,26.23,WSW,257,15.0,21.0,92,-99.99,,,-99.99,,2013-03-07 05:12:00,
2013-03-06 21:22:00,40.0,38.0,26.23,WSW,257,15.0,20.0,93,-99.99,,,-99.99,,2013-03-07 05:22:00,
2013-03-06 21:31:00,40.0,38.0,26.23,WSW,250,17.0,23.0,93,-99.99,,,-99.99,,2013-03-07 05:31:00,
2013-03-06 21:41:00,40.0,38.0,26.23,WSW,250,17.0,23.0,93,-99.99,,,-99.99,,2013-03-07 05:41:00,
2013-03-06 21:52:00,40.0,38.0,26.23,WSW,250,18.0,23.0,94,-99.99,,,-99.99,,2013-03-07 05:52:00,
2013-03-06 22:01:00,40.0,38.0,26.23,WSW,253,17.0,23.0,94,-99.99,,,-99.99,,2013-03-07 06:01:00,
2013-03-06 22:11:00,40.0,38.0,26.23,WSW,255,16.0,21.0,94,-99.99,,,-99.99,,2013-03-07 06:11:00,
2013-03-06 22:21:00,40.0,38.0,26.23,WSW,256,16.0,21.0,93,-99.99,,,-99.99,,2013-03-07 06:21:00,
2013-03-06 22:31:00,40.0,38.0,26.23,WSW,258,16.0,21.0,93,-99.99,,,-99.99,,2013-03-07 06:31:00,
2013-03-06 22:41:00,40.0,38.0,26.23,WSW,256,16.0,21.0,93,-99.99,,,-99.99,,2013-03-07 06:41:00,
2013-03-06 22:51:00,40.0,38.0,26.23,WSW,252,18.0,25.0,93,-99.99,,,-99.99,,2013-03-07 06:51:00,
2013-03-06 23:01:00,40.0,38.0,26.23,WSW,252,18.0,25.0,93,-99.99,,,-99.99,,2013-03-07 07:01:00,
2013-03-06 23:11:00,40.0,38.0,26.23,WSW,247,19.0,24.0,93,-99.99,,,-99.99,,2013-03-07 07:11:00,
2013-03-06 23:21:00,40.0,38.0,26.23,WSW,248,18.0,25.0,93,-99.99,,,-99.99,,2013-03-07 07:21:00,
2013-03-06 23:31:00,40.0,38.0,26.23,WSW,251,17.0,24.0,93,-99.99,,,-99.99,,2013-03-07 07:31:00,
2013-03-06 23:41:00,40.0,38.0,26.23,WSW,250,18.0,23.0,93,-99.99,,,-99.99,,2013-03-07 07:41:00,
2013-03-06 23:51:00,40.0,38.0,26.23,WSW,249,18.0,24.0,92,-99.99,,,-99.99,,2013-03-07 07:51:00,